AirNav   Get $300 off a Bose A20 Aviation Headset
 
 977 users online  

07TE Cuddihy Field Airport
Corpus Christi, Texas, USA

GOING TO CORPUS CHRISTI?


FAA INFORMATION EFFECTIVE 12 SEPTEMBER 2019

Location

FAA Identifier: 07TE
Lat/Long: 27-43-16.1050N 097-30-45.9760W
27-43.268417N 097-30.766267W
27.7211403,-97.5127711
(estimated)
Elevation: 39 ft. / 11.9 m (surveyed)
Variation: 07E (1985)
From city: 7 miles SW of CORPUS CHRISTI, TX
Time zone: UTC -5 (UTC -6 during Standard Time)
Zip code: 78415

Airport Operations

Airport use: Private use. Permission required prior to landing
Activation date: 07/1943
Control tower: no
ARTCC: HOUSTON CENTER
FSS: SAN ANGELO FLIGHT SERVICE STATION
Attendance: UNATNDD
Wind indicator: no
Segmented circle: no

Airport Communications

WX ASOS at CRP (3 nm N): PHONE 361-289-0191
WX AWOS-3 at RBO (10 nm W): 118.175 (361-767-1982)
WX AWOS-1 at T69 (19 nm N): 118.25 (361-364-1844)
WX AWOS-3 at TFP (20 nm NE): 118.775 (361-758-8961)

Nearby radio navigation aids

VOR radial/distance  VOR name  Freq  Var
CRPr189/11.5CORPUS CHRISTI VORTAC115.5009E
NGPr274/11.8TRUAX VORTAC114.0006E
ALIr086/(27.0)ALICE VOR114.5006E

 
NDB name  Hdg/Dist  Freq  Var  ID
MELLON RANCH200/37.337506EMNO -- -. ---

Airport Services

Airframe service: NONE
Powerplant service: NONE

Runway Information

Runway 13/31

Dimensions: 5000 x 100 ft. / 1524 x 30 m
Surface: asphalt
RUNWAY 13  RUNWAY 31
Traffic pattern: leftleft
Approach lights: SSALR: simplified short approach lighting system with runway alignment indicator lights

Airport Ownership and Management from official FAA records

Ownership: Privately-owned
Manager: JIMMY C. ADAIR
BOX 9056
CORPUS CHRISTI, TX 78469

Airport Operational Statistics

Aircraft based on the field: 1
Multi engine airplanes: 1
    

Additional Remarks

FOR CD CTC CORPUS CHRISTI APCH AT 361-299-4230.

Instrument Procedures

There are no published instrument procedures at 07TE.

Some nearby airports with instrument procedures:

KCRP - Corpus Christi International Airport (3 nm N)
KRBO - Nueces County Airport (10 nm W)
KNGP - Corpus Christi Naval Air Station/Truax Field (12 nm E)
T69 - Alfred C 'Bubba' Thomas Airport (19 nm N)
KTFP - McCampbell-Porter Airport (20 nm NE)
 
Loc | Ops | Rwys | IFR | FBO | Links
Com | Nav | Svcs | Stats | Notes
Area around 07TE (Cuddihy Field Airport)
 
Road maps at: MapQuest Bing Google
 
Aerial photo
No photo
 
Sectional chart

 
Airport distance calculator
Flying to Cuddihy Field Airport? Find the distance to fly.

From to 07TE

Sunrise and sunset
Times for 21-Sep-2019
 Local
(UTC-5)
 Zulu
(UTC)
Morning civil twilight06:5611:56
Sunrise07:1912:19
Sunset19:2700:27
Evening civil twilight19:5100:51

Current date and time
Zulu (UTC)  21-Sep-2019 18:56:29
Local (UTC-5)  21-Sep-2019 13:56:29
 
METAR
KCRP 
3nm N 
211751Z 14014G22KT 10SM SCT034 SCT070 SCT250 33/23 A3000 RMK AO2 SLP158 CB DSNT SW W NW T03330233 10339 20272 58003
KRBO 
10nm W 
211830Z AUTO 12015G23KT 10SM SCT041 SCT050 BKN065 33/22 A2999 RMK AO2 T03320222
KNGP 
13nm E 
211756Z AUTO 12016KT 10SM CLR 32/25 A3001 RMK AO2 SLP161 60000 T03220250 10322 20283 58003 $
KTFP 
20nm NE 
211835Z AUTO 17015KT 10SM CLR 34/24 A3000 RMK AO2 T03370237 PNO
TAF
KCRP 
3nm N 
211732Z 2118/2218 14015G22KT P6SM SCT030 BKN050 TEMPO 2118/2119 -SHRA BKN030 FM220200 13010KT P6SM SCT020 FM220800 15006KT P6SM VCSH SCT020 BKN050 TEMPO 2210/2214 -SHRA BKN020 FM221600 14014KT P6SM SCT035
KNGP 
13nm E 
2115/2215 13015G20KT 9999 FEW020 SCT040 BKN050 QNH2990INS BECMG 2122/2200 13010G15KT 9999 FEW010 SCT030 SCT100 BKN250 QNH2989INS BECMG 2204/2206 14011KT 9999 SKC QNH2992INS FM220900 15011KT 9999 FEW250 QNH2992INS AUTOMATED SENSOR METWATCH 2115 TIL 2311 T31/2121Z T26/2212Z FN00204
NOTAMs
Click for the latest NOTAMs
NOTAMs are issued by the DoD/FAA and will open in a separate window not controlled by AirNav.

 

 
 

Would you like to see your business listed on this page?

 If your business provides an interesting product or service to pilots, flight crews, aircraft, or users of the Cuddihy Field Airport, you should consider listing it here.  To start the listing process, click on the button below
 
Add a business
 

Other Pages about Cuddihy Field Airport

Update a link
 
Copyright © AirNav, LLC. All rights reserved. Privacy Policy  Contact